sensor_id;sensor_type;location;lat;lon;timestamp;pressure;altitude;pressure_sealevel;temperature;humidity
52957;BME280;38819;42.692;23.342;2023-06-26T00:00:42;95086.78;;;22.00;74.14
52957;BME280;38819;42.692;23.342;2023-06-26T00:03:08;95084.50;;;22.06;73.84
52957;BME280;38819;42.692;23.342;2023-06-26T00:05:33;95079.38;;;22.05;73.91
52957;BME280;38819;42.692;23.342;2023-06-26T00:07:59;95080.47;;;22.00;74.16
52957;BME280;38819;42.692;23.342;2023-06-26T00:10:26;95073.81;;;22.01;74.21
52957;BME280;38819;42.692;23.342;2023-06-26T00:12:51;95073.41;;;21.99;74.37
52957;BME280;38819;42.692;23.342;2023-06-26T00:15:16;95078.41;;;21.93;74.36
52957;BME280;38819;42.692;23.342;2023-06-26T00:17:42;95079.47;;;21.85;74.72
52957;BME280;38819;42.692;23.342;2023-06-26T00:20:07;95078.31;;;21.86;74.61
52957;BME280;38819;42.692;23.342;2023-06-26T00:22:33;95066.22;;;21.91;74.37
52957;BME280;38819;42.692;23.342;2023-06-26T00:24:58;95079.34;;;21.78;75.00
52957;BME280;38819;42.692;23.342;2023-06-26T00:27:24;95083.13;;;21.93;74.45
52957;BME280;38819;42.692;23.342;2023-06-26T00:29:49;95073.84;;;21.78;74.96
52957;BME280;38819;42.692;23.342;2023-06-26T00:32:14;95074.94;;;21.73;75.18
52957;BME280;38819;42.692;23.342;2023-06-26T00:34:40;95072.88;;;21.67;75.35
52957;BME280;38819;42.692;23.342;2023-06-26T00:37:05;95070.59;;;21.69;75.44
52957;BME280;38819;42.692;23.342;2023-06-26T00:39:30;95063.66;;;21.78;75.15
52957;BME280;38819;42.692;23.342;2023-06-26T00:41:56;95071.16;;;21.81;74.62
52957;BME280;38819;42.692;23.342;2023-06-26T00:44:21;95063.50;;;21.94;74.11
52957;BME280;38819;42.692;23.342;2023-06-26T00:46:46;95068.34;;;21.78;74.70
52957;BME280;38819;42.692;23.342;2023-06-26T00:49:12;95064.94;;;21.84;74.57
52957;BME280;38819;42.692;23.342;2023-06-26T00:51:37;95071.63;;;21.83;74.35
52957;BME280;38819;42.692;23.342;2023-06-26T00:54:03;95059.38;;;21.81;74.76
52957;BME280;38819;42.692;23.342;2023-06-26T00:56:30;95055.47;;;21.82;74.65
52957;BME280;38819;42.692;23.342;2023-06-26T00:58:56;95057.47;;;21.85;74.37
52957;BME280;38819;42.692;23.342;2023-06-26T01:01:21;95048.03;;;21.82;74.48
52957;BME280;38819;42.692;23.342;2023-06-26T01:03:50;95050.22;;;21.73;74.90
52957;BME280;38819;42.692;23.342;2023-06-26T01:06:17;95050.59;;;21.72;75.19
52957;BME280;38819;42.692;23.342;2023-06-26T01:08:42;95044.31;;;21.71;74.80
52957;BME280;38819;42.692;23.342;2023-06-26T01:11:08;95044.50;;;21.82;74.50
52957;BME280;38819;42.692;23.342;2023-06-26T01:13:34;95038.75;;;21.68;74.88
52957;BME280;38819;42.692;23.342;2023-06-26T01:15:59;95041.13;;;21.69;75.12
52957;BME280;38819;42.692;23.342;2023-06-26T01:18:25;95032.84;;;21.65;75.18
52957;BME280;38819;42.692;23.342;2023-06-26T01:20:51;95039.22;;;21.73;74.61
52957;BME280;38819;42.692;23.342;2023-06-26T01:23:24;95036.09;;;21.75;74.65
52957;BME280;38819;42.692;23.342;2023-06-26T01:28:39;95034.28;;;21.82;74.29
52957;BME280;38819;42.692;23.342;2023-06-26T01:31:06;95033.97;;;21.88;73.87
52957;BME280;38819;42.692;23.342;2023-06-26T01:33:32;95027.72;;;21.91;73.59
52957;BME280;38819;42.692;23.342;2023-06-26T01:35:57;95023.38;;;21.90;73.98
52957;BME280;38819;42.692;23.342;2023-06-26T01:38:22;95015.53;;;21.92;73.81
52957;BME280;38819;42.692;23.342;2023-06-26T01:40:48;95022.50;;;21.82;74.24
52957;BME280;38819;42.692;23.342;2023-06-26T01:46:02;95022.69;;;21.70;74.64
52957;BME280;38819;42.692;23.342;2023-06-26T01:49:13;95026.72;;;21.76;74.20
52957;BME280;38819;42.692;23.342;2023-06-26T01:51:18;95026.53;;;21.65;74.54
52957;BME280;38819;42.692;23.342;2023-06-26T01:53:46;95024.91;;;21.60;74.75
52957;BME280;38819;42.692;23.342;2023-06-26T01:56:15;95011.13;;;21.57;74.58
52957;BME280;38819;42.692;23.342;2023-06-26T01:58:43;95010.63;;;21.51;74.78
52957;BME280;38819;42.692;23.342;2023-06-26T02:01:08;95008.72;;;21.55;74.42
52957;BME280;38819;42.692;23.342;2023-06-26T02:03:34;95010.06;;;21.42;74.92
52957;BME280;38819;42.692;23.342;2023-06-26T02:05:59;95007.03;;;21.47;74.82
52957;BME280;38819;42.692;23.342;2023-06-26T02:08:24;95018.28;;;21.42;74.59
52957;BME280;38819;42.692;23.342;2023-06-26T02:10:50;95016.06;;;21.48;74.51
52957;BME280;38819;42.692;23.342;2023-06-26T02:13:15;95018.91;;;21.55;74.29
52957;BME280;38819;42.692;23.342;2023-06-26T02:15:40;95015.59;;;21.45;74.53
52957;BME280;38819;42.692;23.342;2023-06-26T02:18:05;95022.66;;;21.46;74.26
52957;BME280;38819;42.692;23.342;2023-06-26T02:20:31;95019.44;;;21.41;74.42
52957;BME280;38819;42.692;23.342;2023-06-26T02:22:58;95017.75;;;21.33;74.81
52957;BME280;38819;42.692;23.342;2023-06-26T02:25:23;95025.66;;;21.38;74.59
52957;BME280;38819;42.692;23.342;2023-06-26T02:27:50;95016.69;;;21.41;74.50
52957;BME280;38819;42.692;23.342;2023-06-26T02:30:16;95019.38;;;21.37;74.85
52957;BME280;38819;42.692;23.342;2023-06-26T02:32:41;95023.06;;;21.22;75.02
52957;BME280;38819;42.692;23.342;2023-06-26T02:35:06;95021.22;;;21.29;74.92
52957;BME280;38819;42.692;23.342;2023-06-26T02:37:32;95030.06;;;21.19;75.45
52957;BME280;38819;42.692;23.342;2023-06-26T02:39:57;95032.44;;;21.21;75.30
52957;BME280;38819;42.692;23.342;2023-06-26T02:42:22;95030.78;;;21.16;75.67
52957;BME280;38819;42.692;23.342;2023-06-26T02:44:47;95025.97;;;21.09;75.78
52957;BME280;38819;42.692;23.342;2023-06-26T02:47:13;95017.72;;;21.09;76.01
52957;BME280;38819;42.692;23.342;2023-06-26T02:49:38;95022.31;;;21.02;76.42
52957;BME280;38819;42.692;23.342;2023-06-26T02:52:03;95025.47;;;21.04;76.24
52957;BME280;38819;42.692;23.342;2023-06-26T02:54:29;95028.88;;;20.97;76.42
52957;BME280;38819;42.692;23.342;2023-06-26T02:56:54;95030.09;;;21.00;76.41
52957;BME280;38819;42.692;23.342;2023-06-26T02:59:19;95034.75;;;20.96;76.22
52957;BME280;38819;42.692;23.342;2023-06-26T03:01:44;95031.28;;;20.99;76.45
52957;BME280;38819;42.692;23.342;2023-06-26T03:04:10;95025.41;;;21.00;76.22
52957;BME280;38819;42.692;23.342;2023-06-26T03:06:35;95027.81;;;21.02;76.21
52957;BME280;38819;42.692;23.342;2023-06-26T03:09:00;95024.75;;;21.07;75.85
52957;BME280;38819;42.692;23.342;2023-06-26T03:11:26;95034.63;;;21.12;75.94
52957;BME280;38819;42.692;23.342;2023-06-26T03:13:51;95028.84;;;21.17;75.31
52957;BME280;38819;42.692;23.342;2023-06-26T03:16:16;95034.78;;;21.19;75.47
52957;BME280;38819;42.692;23.342;2023-06-26T03:18:42;95022.75;;;21.27;74.79
52957;BME280;38819;42.692;23.342;2023-06-26T03:21:08;95026.41;;;21.35;74.57
52957;BME280;38819;42.692;23.342;2023-06-26T03:23:34;95019.09;;;21.42;74.07
52957;BME280;38819;42.692;23.342;2023-06-26T03:25:59;95024.09;;;21.60;73.32
52957;BME280;38819;42.692;23.342;2023-06-26T03:28:24;95031.34;;;21.72;72.94
52957;BME280;38819;42.692;23.342;2023-06-26T03:30:50;95026.53;;;21.92;71.97
52957;BME280;38819;42.692;23.342;2023-06-26T03:33:15;95027.91;;;22.05;71.14
52957;BME280;38819;42.692;23.342;2023-06-26T03:35:40;95030.78;;;22.12;71.02
52957;BME280;38819;42.692;23.342;2023-06-26T03:38:05;95029.84;;;22.01;70.85
52957;BME280;38819;42.692;23.342;2023-06-26T03:40:31;95036.72;;;21.88;71.60
52957;BME280;38819;42.692;23.342;2023-06-26T03:42:56;95033.13;;;21.83;71.72
52957;BME280;38819;42.692;23.342;2023-06-26T03:45:21;95037.28;;;21.74;72.10
52957;BME280;38819;42.692;23.342;2023-06-26T03:47:47;95033.34;;;21.75;71.80
52957;BME280;38819;42.692;23.342;2023-06-26T03:50:17;95035.31;;;21.74;72.22
52957;BME280;38819;42.692;23.342;2023-06-26T03:52:42;95035.22;;;21.67;72.35
52957;BME280;38819;42.692;23.342;2023-06-26T03:55:07;95037.97;;;21.67;72.26
52957;BME280;38819;42.692;23.342;2023-06-26T03:57:33;95035.22;;;21.67;72.29
52957;BME280;38819;42.692;23.342;2023-06-26T03:59:58;95027.06;;;21.74;71.89
52957;BME280;38819;42.692;23.342;2023-06-26T04:02:23;95023.97;;;21.76;72.21
52957;BME280;38819;42.692;23.342;2023-06-26T04:04:48;95027.53;;;21.80;71.76
52957;BME280;38819;42.692;23.342;2023-06-26T04:07:14;95027.19;;;21.81;71.65
52957;BME280;38819;42.692;23.342;2023-06-26T04:09:39;95027.72;;;21.91;71.22
52957;BME280;38819;42.692;23.342;2023-06-26T04:12:05;95030.88;;;21.93;70.98
52957;BME280;38819;42.692;23.342;2023-06-26T04:14:30;95035.47;;;21.85;71.17
52957;BME280;38819;42.692;23.342;2023-06-26T04:16:56;95029.78;;;21.97;71.16
52957;BME280;38819;42.692;23.342;2023-06-26T04:19:22;95028.19;;;21.96;70.82
52957;BME280;38819;42.692;23.342;2023-06-26T04:21:48;95033.28;;;21.94;70.90
52957;BME280;38819;42.692;23.342;2023-06-26T04:24:13;95043.47;;;21.94;70.65
52957;BME280;38819;42.692;23.342;2023-06-26T04:26:38;95030.72;;;21.55;71.63
52957;BME280;38819;42.692;23.342;2023-06-26T04:29:06;95044.00;;;21.76;71.67
52957;BME280;38819;42.692;23.342;2023-06-26T04:31:31;95043.94;;;21.73;71.62
52957;BME280;38819;42.692;23.342;2023-06-26T04:33:56;95051.09;;;21.77;71.27
52957;BME280;38819;42.692;23.342;2023-06-26T04:36:22;95050.84;;;21.63;71.65
52957;BME280;38819;42.692;23.342;2023-06-26T04:38:48;95054.09;;;21.69;71.40
52957;BME280;38819;42.692;23.342;2023-06-26T04:41:14;95054.81;;;21.65;71.66
52957;BME280;38819;42.692;23.342;2023-06-26T04:43:39;95050.47;;;21.64;71.90
52957;BME280;38819;42.692;23.342;2023-06-26T04:46:05;95055.97;;;21.64;72.17
52957;BME280;38819;42.692;23.342;2023-06-26T04:48:30;95050.16;;;21.70;71.91
52957;BME280;38819;42.692;23.342;2023-06-26T04:50:56;95051.53;;;21.56;72.43
52957;BME280;38819;42.692;23.342;2023-06-26T04:53:21;95047.38;;;21.66;72.05
52957;BME280;38819;42.692;23.342;2023-06-26T04:55:48;95048.34;;;21.77;71.86
52957;BME280;38819;42.692;23.342;2023-06-26T04:58:13;95047.16;;;21.78;71.81
52957;BME280;38819;42.692;23.342;2023-06-26T05:00:39;95045.91;;;21.72;71.86
52957;BME280;38819;42.692;23.342;2023-06-26T05:03:08;95046.91;;;21.87;71.53
52957;BME280;38819;42.692;23.342;2023-06-26T05:05:33;95049.72;;;21.91;71.57
52957;BME280;38819;42.692;23.342;2023-06-26T05:07:59;95053.78;;;22.00;71.30
52957;BME280;38819;42.692;23.342;2023-06-26T05:10:37;95052.66;;;21.78;71.83
52957;BME280;38819;42.692;23.342;2023-06-26T05:13:03;95058.09;;;21.75;72.31
52957;BME280;38819;42.692;23.342;2023-06-26T05:15:28;95057.47;;;21.85;71.88
52957;BME280;38819;42.692;23.342;2023-06-26T05:17:53;95060.84;;;21.75;72.09
52957;BME280;38819;42.692;23.342;2023-06-26T05:20:18;95061.41;;;21.61;72.38
52957;BME280;38819;42.692;23.342;2023-06-26T05:22:45;95067.47;;;21.70;72.14
52957;BME280;38819;42.692;23.342;2023-06-26T05:25:11;95070.03;;;21.59;72.32
52957;BME280;38819;42.692;23.342;2023-06-26T05:27:36;95062.03;;;21.51;72.46
52957;BME280;38819;42.692;23.342;2023-06-26T05:30:02;95068.59;;;21.46;72.58
52957;BME280;38819;42.692;23.342;2023-06-26T05:32:27;95066.34;;;21.52;72.67
52957;BME280;38819;42.692;23.342;2023-06-26T05:34:54;95074.13;;;21.69;72.12
52957;BME280;38819;42.692;23.342;2023-06-26T05:37:20;95076.25;;;21.79;71.70
52957;BME280;38819;42.692;23.342;2023-06-26T05:39:46;95072.75;;;21.82;71.14
52957;BME280;38819;42.692;23.342;2023-06-26T05:42:12;95073.53;;;21.83;71.23
52957;BME280;38819;42.692;23.342;2023-06-26T05:44:37;95068.41;;;21.81;71.34
52957;BME280;38819;42.692;23.342;2023-06-26T05:47:02;95078.69;;;21.84;70.55
52957;BME280;38819;42.692;23.342;2023-06-26T05:49:28;95067.22;;;21.79;70.53
52957;BME280;38819;42.692;23.342;2023-06-26T05:51:53;95066.41;;;21.78;70.92
52957;BME280;38819;42.692;23.342;2023-06-26T05:54:18;95073.69;;;21.67;71.42
52957;BME280;38819;42.692;23.342;2023-06-26T05:56:44;95080.91;;;21.75;71.31
52957;BME280;38819;42.692;23.342;2023-06-26T05:59:10;95076.97;;;21.76;71.63
52957;BME280;38819;42.692;23.342;2023-06-26T06:01:36;95075.97;;;21.88;70.98
52957;BME280;38819;42.692;23.342;2023-06-26T06:04:01;95075.34;;;21.98;70.21
52957;BME280;38819;42.692;23.342;2023-06-26T06:06:26;95079.66;;;21.96;70.20
52957;BME280;38819;42.692;23.342;2023-06-26T06:08:52;95078.19;;;22.02;70.09
52957;BME280;38819;42.692;23.342;2023-06-26T06:11:17;95078.28;;;22.09;69.60
52957;BME280;38819;42.692;23.342;2023-06-26T06:13:42;95079.75;;;22.03;69.77
52957;BME280;38819;42.692;23.342;2023-06-26T06:16:08;95086.22;;;22.14;69.99
52957;BME280;38819;42.692;23.342;2023-06-26T06:18:33;95079.88;;;22.10;70.14
52957;BME280;38819;42.692;23.342;2023-06-26T06:20:58;95077.72;;;22.27;69.44
52957;BME280;38819;42.692;23.342;2023-06-26T06:23:23;95078.66;;;22.34;69.39
52957;BME280;38819;42.692;23.342;2023-06-26T06:25:49;95083.03;;;22.35;69.13
52957;BME280;38819;42.692;23.342;2023-06-26T06:28:14;95072.88;;;22.43;67.77
52957;BME280;38819;42.692;23.342;2023-06-26T06:30:41;95074.19;;;22.53;68.22
52957;BME280;38819;42.692;23.342;2023-06-26T06:33:06;95075.91;;;22.65;67.89
52957;BME280;38819;42.692;23.342;2023-06-26T06:35:32;95083.03;;;22.66;67.79
52957;BME280;38819;42.692;23.342;2023-06-26T06:37:57;95072.66;;;22.55;67.10
52957;BME280;38819;42.692;23.342;2023-06-26T06:40:22;95076.22;;;22.56;66.96
52957;BME280;38819;42.692;23.342;2023-06-26T06:42:47;95072.16;;;22.46;66.62
52957;BME280;38819;42.692;23.342;2023-06-26T06:45:13;95069.03;;;22.48;67.44
52957;BME280;38819;42.692;23.342;2023-06-26T06:47:38;95073.09;;;22.57;66.85
52957;BME280;38819;42.692;23.342;2023-06-26T06:50:03;95065.91;;;22.49;66.95
52957;BME280;38819;42.692;23.342;2023-06-26T06:52:39;95066.03;;;22.60;66.04
52957;BME280;38819;42.692;23.342;2023-06-26T06:55:05;95066.78;;;22.57;65.21
52957;BME280;38819;42.692;23.342;2023-06-26T06:57:33;95070.78;;;22.63;65.28
52957;BME280;38819;42.692;23.342;2023-06-26T07:00:02;95063.47;;;22.74;64.80
52957;BME280;38819;42.692;23.342;2023-06-26T07:02:29;95054.94;;;22.87;65.17
52957;BME280;38819;42.692;23.342;2023-06-26T07:04:54;95058.66;;;23.02;63.75
52957;BME280;38819;42.692;23.342;2023-06-26T07:07:19;95056.41;;;23.07;63.59
52957;BME280;38819;42.692;23.342;2023-06-26T07:09:45;95059.16;;;23.07;62.91
52957;BME280;38819;42.692;23.342;2023-06-26T07:12:10;95056.72;;;23.02;62.98
52957;BME280;38819;42.692;23.342;2023-06-26T07:14:35;95059.59;;;23.13;62.73
52957;BME280;38819;42.692;23.342;2023-06-26T07:17:01;95056.16;;;23.23;62.25
52957;BME280;38819;42.692;23.342;2023-06-26T07:19:26;95051.19;;;23.36;62.26
52957;BME280;38819;42.692;23.342;2023-06-26T07:21:51;95055.13;;;23.39;60.00
52957;BME280;38819;42.692;23.342;2023-06-26T07:24:16;95048.84;;;23.42;60.76
52957;BME280;38819;42.692;23.342;2023-06-26T07:26:42;95056.69;;;23.36;61.89
52957;BME280;38819;42.692;23.342;2023-06-26T07:29:07;95051.72;;;23.53;61.38
52957;BME280;38819;42.692;23.342;2023-06-26T07:31:32;95048.09;;;23.45;61.29
52957;BME280;38819;42.692;23.342;2023-06-26T07:33:57;95048.63;;;23.58;60.58
52957;BME280;38819;42.692;23.342;2023-06-26T07:36:23;95048.50;;;23.47;60.39
52957;BME280;38819;42.692;23.342;2023-06-26T07:38:48;95054.13;;;23.58;60.10
52957;BME280;38819;42.692;23.342;2023-06-26T07:41:13;95051.31;;;23.51;59.63
52957;BME280;38819;42.692;23.342;2023-06-26T07:43:39;95055.13;;;23.39;59.49
52957;BME280;38819;42.692;23.342;2023-06-26T07:46:04;95051.97;;;23.37;59.62
52957;BME280;38819;42.692;23.342;2023-06-26T07:48:29;95054.28;;;23.31;60.74
52957;BME280;38819;42.692;23.342;2023-06-26T07:50:55;95054.72;;;23.37;58.92
52957;BME280;38819;42.692;23.342;2023-06-26T07:53:20;95058.19;;;23.30;59.38
52957;BME280;38819;42.692;23.342;2023-06-26T07:55:45;95050.03;;;23.41;59.05
52957;BME280;38819;42.692;23.342;2023-06-26T07:58:11;95045.06;;;23.57;60.04
52957;BME280;38819;42.692;23.342;2023-06-26T08:00:36;95045.19;;;23.75;59.31
52957;BME280;38819;42.692;23.342;2023-06-26T08:03:01;95048.47;;;23.84;59.06
52957;BME280;38819;42.692;23.342;2023-06-26T08:05:27;95054.47;;;23.97;57.55
52957;BME280;38819;42.692;23.342;2023-06-26T08:07:52;95056.06;;;24.02;57.64
52957;BME280;38819;42.692;23.342;2023-06-26T08:10:17;95051.38;;;24.02;57.01
52957;BME280;38819;42.692;23.342;2023-06-26T08:12:43;95047.53;;;24.18;57.53
52957;BME280;38819;42.692;23.342;2023-06-26T08:15:10;95040.50;;;24.31;57.01
52957;BME280;38819;42.692;23.342;2023-06-26T08:17:35;95042.13;;;24.39;57.17
52957;BME280;38819;42.692;23.342;2023-06-26T08:20:01;95052.31;;;24.32;57.37
52957;BME280;38819;42.692;23.342;2023-06-26T08:22:26;95053.84;;;24.22;57.74
52957;BME280;38819;42.692;23.342;2023-06-26T08:24:52;95047.16;;;24.23;58.36
52957;BME280;38819;42.692;23.342;2023-06-26T08:27:17;95051.56;;;24.35;58.01
52957;BME280;38819;42.692;23.342;2023-06-26T08:29:42;95044.81;;;24.32;57.48
52957;BME280;38819;42.692;23.342;2023-06-26T08:32:08;95055.84;;;24.29;57.20
52957;BME280;38819;42.692;23.342;2023-06-26T08:34:33;95053.03;;;24.14;56.35
52957;BME280;38819;42.692;23.342;2023-06-26T08:36:58;95060.03;;;24.01;56.97
52957;BME280;38819;42.692;23.342;2023-06-26T08:39:24;95057.16;;;23.86;56.32
52957;BME280;38819;42.692;23.342;2023-06-26T08:41:49;95068.19;;;23.86;56.29
52957;BME280;38819;42.692;23.342;2023-06-26T08:44:14;95050.91;;;23.97;56.88
52957;BME280;38819;42.692;23.342;2023-06-26T08:46:40;95051.69;;;23.94;56.74
52957;BME280;38819;42.692;23.342;2023-06-26T08:49:20;95057.66;;;23.99;56.33
52957;BME280;38819;42.692;23.342;2023-06-26T08:51:49;95049.72;;;23.94;57.41
52957;BME280;38819;42.692;23.342;2023-06-26T08:54:17;95048.25;;;24.11;57.17
52957;BME280;38819;42.692;23.342;2023-06-26T08:56:42;95058.91;;;24.09;55.17
52957;BME280;38819;42.692;23.342;2023-06-26T08:59:09;95047.41;;;24.00;55.79
52957;BME280;38819;42.692;23.342;2023-06-26T09:01:39;95038.78;;;24.12;55.47
52957;BME280;38819;42.692;23.342;2023-06-26T09:04:05;95040.53;;;24.35;55.76
52957;BME280;38819;42.692;23.342;2023-06-26T09:06:31;95044.13;;;24.42;56.08
52957;BME280;38819;42.692;23.342;2023-06-26T09:08:56;95045.69;;;24.44;54.98
52957;BME280;38819;42.692;23.342;2023-06-26T09:11:21;95042.97;;;24.51;54.07
52957;BME280;38819;42.692;23.342;2023-06-26T09:13:46;95043.38;;;24.49;54.60
52957;BME280;38819;42.692;23.342;2023-06-26T09:16:12;95035.88;;;24.50;55.42
52957;BME280;38819;42.692;23.342;2023-06-26T09:18:38;95046.66;;;24.69;55.17
52957;BME280;38819;42.692;23.342;2023-06-26T09:21:08;95041.88;;;24.63;55.10
52957;BME280;38819;42.692;23.342;2023-06-26T09:23:34;95037.03;;;24.45;54.23
52957;BME280;38819;42.692;23.342;2023-06-26T09:26:01;95045.28;;;24.38;55.47
52957;BME280;38819;42.692;23.342;2023-06-26T09:28:27;95044.13;;;24.46;55.57
52957;BME280;38819;42.692;23.342;2023-06-26T09:30:52;95039.88;;;24.56;55.06
52957;BME280;38819;42.692;23.342;2023-06-26T09:33:18;95031.22;;;24.61;54.04
52957;BME280;38819;42.692;23.342;2023-06-26T09:35:44;95039.13;;;24.66;54.26
52957;BME280;38819;42.692;23.342;2023-06-26T09:38:10;95030.84;;;24.66;53.94
52957;BME280;38819;42.692;23.342;2023-06-26T09:40:36;95034.38;;;24.67;53.35
52957;BME280;38819;42.692;23.342;2023-06-26T09:43:06;95030.09;;;24.73;53.78
52957;BME280;38819;42.692;23.342;2023-06-26T09:45:33;95029.72;;;24.82;53.03
52957;BME280;38819;42.692;23.342;2023-06-26T09:48:08;95035.59;;;24.69;52.51
52957;BME280;38819;42.692;23.342;2023-06-26T09:50:33;95033.97;;;24.61;53.08
52957;BME280;38819;42.692;23.342;2023-06-26T09:53:10;95039.13;;;24.70;52.86
52957;BME280;38819;42.692;23.342;2023-06-26T09:55:36;95037.94;;;24.67;51.89
52957;BME280;38819;42.692;23.342;2023-06-26T09:58:02;95035.16;;;24.67;52.38
52957;BME280;38819;42.692;23.342;2023-06-26T10:00:27;95030.84;;;24.70;51.63
52957;BME280;38819;42.692;23.342;2023-06-26T10:02:53;95048.59;;;24.65;52.02
52957;BME280;38819;42.692;23.342;2023-06-26T10:05:18;95045.03;;;24.61;51.61
52957;BME280;38819;42.692;23.342;2023-06-26T10:07:44;95031.47;;;24.41;52.09
52957;BME280;38819;42.692;23.342;2023-06-26T10:10:10;95029.13;;;24.47;51.85
52957;BME280;38819;42.692;23.342;2023-06-26T10:12:36;95035.13;;;24.56;51.81
52957;BME280;38819;42.692;23.342;2023-06-26T10:15:02;95032.00;;;24.58;52.54
52957;BME280;38819;42.692;23.342;2023-06-26T10:17:30;95040.19;;;24.47;52.84
52957;BME280;38819;42.692;23.342;2023-06-26T10:19:55;95035.88;;;24.53;52.15
52957;BME280;38819;42.692;23.342;2023-06-26T10:22:25;95048.06;;;24.45;51.56
52957;BME280;38819;42.692;23.342;2023-06-26T10:24:52;95045.63;;;24.33;52.28
52957;BME280;38819;42.692;23.342;2023-06-26T10:27:21;95042.91;;;24.40;52.25
52957;BME280;38819;42.692;23.342;2023-06-26T10:29:56;95037.72;;;24.28;52.16
52957;BME280;38819;42.692;23.342;2023-06-26T10:32:23;95035.69;;;24.17;51.24
52957;BME280;38819;42.692;23.342;2023-06-26T10:34:50;95048.28;;;24.15;50.82
52957;BME280;38819;42.692;23.342;2023-06-26T10:37:15;95039.22;;;24.14;50.21
52957;BME280;38819;42.692;23.342;2023-06-26T10:39:51;95039.63;;;24.20;50.70
52957;BME280;38819;42.692;23.342;2023-06-26T10:42:20;95042.00;;;24.18;50.52
52957;BME280;38819;42.692;23.342;2023-06-26T10:44:53;95040.06;;;24.26;49.55
52957;BME280;38819;42.692;23.342;2023-06-26T10:47:31;95051.53;;;24.31;49.84
52957;BME280;38819;42.692;23.342;2023-06-26T10:49:57;95027.13;;;24.40;50.10
52957;BME280;38819;42.692;23.342;2023-06-26T10:52:22;95031.84;;;24.33;52.16
52957;BME280;38819;42.692;23.342;2023-06-26T10:54:50;95031.41;;;24.27;53.56
52957;BME280;38819;42.692;23.342;2023-06-26T10:57:23;95032.59;;;24.26;53.34
52957;BME280;38819;42.692;23.342;2023-06-26T10:59:49;95024.69;;;24.25;53.13
52957;BME280;38819;42.692;23.342;2023-06-26T11:02:46;95021.91;;;24.21;53.54
52957;BME280;38819;42.692;23.342;2023-06-26T11:05:12;95030.25;;;24.35;53.54
52957;BME280;38819;42.692;23.342;2023-06-26T11:13:16;95017.72;;;24.52;51.55
52957;BME280;38819;42.692;23.342;2023-06-26T11:15:43;95016.97;;;24.55;51.50
52957;BME280;38819;42.692;23.342;2023-06-26T11:18:09;95025.34;;;24.70;51.15
52957;BME280;38819;42.692;23.342;2023-06-26T11:20:35;95024.94;;;24.71;50.32
52957;BME280;38819;42.692;23.342;2023-06-26T11:23:00;95017.06;;;24.77;51.03
52957;BME280;38819;42.692;23.342;2023-06-26T11:25:28;95006.84;;;24.85;51.33
52957;BME280;38819;42.692;23.342;2023-06-26T11:27:53;95019.81;;;24.73;50.78
52957;BME280;38819;42.692;23.342;2023-06-26T11:30:23;95011.16;;;24.75;50.30
52957;BME280;38819;42.692;23.342;2023-06-26T11:32:48;95004.09;;;24.88;50.53
52957;BME280;38819;42.692;23.342;2023-06-26T11:35:21;95010.38;;;24.78;49.32
52957;BME280;38819;42.692;23.342;2023-06-26T11:37:48;95007.22;;;24.80;49.61
52957;BME280;38819;42.692;23.342;2023-06-26T11:40:19;94998.94;;;24.83;49.37
52957;BME280;38819;42.692;23.342;2023-06-26T11:42:44;95008.06;;;24.98;49.38
52957;BME280;38819;42.692;23.342;2023-06-26T11:45:10;95003.72;;;25.01;48.91
52957;BME280;38819;42.692;23.342;2023-06-26T11:47:35;94997.84;;;25.09;49.27
52957;BME280;38819;42.692;23.342;2023-06-26T11:50:04;94997.03;;;25.12;48.85
52957;BME280;38819;42.692;23.342;2023-06-26T11:52:29;94994.31;;;25.27;48.99
52957;BME280;38819;42.692;23.342;2023-06-26T11:54:54;94996.69;;;25.36;48.91
52957;BME280;38819;42.692;23.342;2023-06-26T11:57:20;94999.09;;;25.44;48.73
52957;BME280;38819;42.692;23.342;2023-06-26T11:59:45;95015.66;;;25.41;48.85
52957;BME280;38819;42.692;23.342;2023-06-26T12:02:12;94991.16;;;25.39;48.79
52957;BME280;38819;42.692;23.342;2023-06-26T12:04:39;94999.47;;;25.39;49.40
52957;BME280;38819;42.692;23.342;2023-06-26T12:07:05;94997.44;;;25.14;49.26
52957;BME280;38819;42.692;23.342;2023-06-26T12:09:33;94991.91;;;25.14;49.73
52957;BME280;38819;42.692;23.342;2023-06-26T12:11:58;94986.44;;;25.29;48.48
52957;BME280;38819;42.692;23.342;2023-06-26T12:14:24;94999.84;;;25.30;48.84
52957;BME280;38819;42.692;23.342;2023-06-26T12:16:50;94995.13;;;25.35;47.90
52957;BME280;38819;42.692;23.342;2023-06-26T12:19:15;94986.41;;;25.25;48.32
52957;BME280;38819;42.692;23.342;2023-06-26T12:24:06;94987.22;;;25.47;48.79
52957;BME280;38819;42.692;23.342;2023-06-26T12:26:32;95015.69;;;25.48;49.38
52957;BME280;38819;42.692;23.342;2023-06-26T12:29:04;94993.16;;;25.46;47.34
52957;BME280;38819;42.692;23.342;2023-06-26T12:31:29;94998.28;;;25.44;47.51
52957;BME280;38819;42.692;23.342;2023-06-26T12:33:55;94994.72;;;25.32;47.34
52957;BME280;38819;42.692;23.342;2023-06-26T12:36:21;94995.91;;;25.46;48.06
52957;BME280;38819;42.692;23.342;2023-06-26T12:38:48;94997.47;;;25.32;48.42
52957;BME280;38819;42.692;23.342;2023-06-26T12:41:13;95001.44;;;25.46;48.76
52957;BME280;38819;42.692;23.342;2023-06-26T12:43:39;94996.69;;;25.39;48.81
52957;BME280;38819;42.692;23.342;2023-06-26T12:46:05;94991.56;;;25.56;48.90
52957;BME280;38819;42.692;23.342;2023-06-26T12:48:43;95005.41;;;25.48;48.87
52957;BME280;38819;42.692;23.342;2023-06-26T12:51:11;95007.78;;;25.43;49.07
52957;BME280;38819;42.692;23.342;2023-06-26T12:53:37;95003.44;;;25.38;49.63
52957;BME280;38819;42.692;23.342;2023-06-26T12:56:04;94991.19;;;25.43;50.26
52957;BME280;38819;42.692;23.342;2023-06-26T12:58:29;94994.31;;;25.34;50.35